Retz, Austria
Current Conditions -  °F | °C
As of 7:00 PM on Sunday 21 Dec 2014 (Local Time) from LKNA Reporting Station
Broken Clouds Broken Clouds  
Wind Chill: 29°   Ceiling: 16000
Heat Index: 37°   Visibility: 6mi
Dew Point: 32°   Wind: 13mph
Humidity: 81%   Direction: 270°W
Pressure: 30.3"   Gusts: NA
Location:  48.76°N, 15.95°E
Report Text: LKNA 211700Z 27011KT 9999 SCT046 BKN160 03/00 Q1026 NOSIG
Loading
Personal Weather Stations






























Interactive Weather Map New forecast layout! Learn more

10-Day Weather Forecast

Advertisements
Track Severe Weather on mobile